createdAt,value
2018-11-11T00:00:58.440Z,17.87
2018-11-11T00:03:26.930Z,17.10
2018-11-11T00:05:55.526Z,17.27
2018-11-11T00:08:23.944Z,16.20
2018-11-11T00:10:52.492Z,17.63
2018-11-11T00:13:21.101Z,15.93
2018-11-11T00:15:49.547Z,17.70
2018-11-11T00:18:18.040Z,16.87
2018-11-11T00:20:47.138Z,17.43
2018-11-11T00:23:15.711Z,17.03
2018-11-11T00:25:44.206Z,17.17
2018-11-11T00:28:12.820Z,16.60
2018-11-11T00:30:41.473Z,17.90
2018-11-11T00:33:09.984Z,17.27
2018-11-11T00:35:38.440Z,15.20
2018-11-11T00:38:07.776Z,16.70
2018-11-11T00:40:36.196Z,16.50
2018-11-11T00:43:05.160Z,16.33
2018-11-11T00:45:33.592Z,17.13
2018-11-11T00:48:02.047Z,17.63
2018-11-11T00:50:30.487Z,16.73
2018-11-11T00:52:58.987Z,16.30
2018-11-11T00:55:30.992Z,16.13
2018-11-11T00:57:59.641Z,17.20
2018-11-11T01:00:28.110Z,17.87
2018-11-11T01:02:56.616Z,19.53
2018-11-11T01:05:25.584Z,18.50
2018-11-11T01:07:54.198Z,19.23
2018-11-11T01:10:22.668Z,21.07
2018-11-11T01:12:51.075Z,19.43
2018-11-11T01:15:19.525Z,19.83
2018-11-11T01:17:47.924Z,18.90
2018-11-11T01:20:17.473Z,18.60
2018-11-11T01:22:46.539Z,19.60
2018-11-11T01:25:16.251Z,18.90
2018-11-11T01:27:44.822Z,19.17
2018-11-11T01:30:13.300Z,16.27
2018-11-11T01:32:42.333Z,17.23
2018-11-11T01:35:12.428Z,17.50
2018-11-11T01:37:41.626Z,18.27
2018-11-11T01:40:10.236Z,17.60
2018-11-11T01:42:38.863Z,17.47
2018-11-11T01:45:10.272Z,16.97
2018-11-11T01:47:38.724Z,19.50
2018-11-11T01:50:07.976Z,18.90
2018-11-11T01:52:36.468Z,19.03
2018-11-11T01:55:05.064Z,18.80
2018-11-11T01:57:33.515Z,19.40
2018-11-11T02:00:02.000Z,17.80
2018-11-11T02:02:30.483Z,17.20
2018-11-11T02:04:58.969Z,16.37
2018-11-11T02:07:27.558Z,19.33
2018-11-11T02:09:56.059Z,19.37
2018-11-11T02:12:24.533Z,18.63
2018-11-11T02:14:53.119Z,18.17
2018-11-11T02:17:21.599Z,19.63
2018-11-11T02:19:50.104Z,19.70
2018-11-11T02:22:18.571Z,21.10
2018-11-11T02:24:47.053Z,19.80
2018-11-11T02:27:15.494Z,22.40
2018-11-11T02:29:44.026Z,21.53
2018-11-11T02:32:12.512Z,20.83
2018-11-11T02:34:40.955Z,20.57
2018-11-11T02:37:09.378Z,19.60
2018-11-11T02:39:37.837Z,20.77
2018-11-11T02:42:06.317Z,19.97
2018-11-11T02:44:34.720Z,21.83
2018-11-11T02:47:03.315Z,19.93
2018-11-11T02:49:31.801Z,23.10
2018-11-11T02:52:00.216Z,21.47
2018-11-11T02:54:28.771Z,23.37
2018-11-11T02:56:57.258Z,23.40
2018-11-11T02:59:25.751Z,20.67
2018-11-11T03:01:54.163Z,22.37
2018-11-11T03:04:22.628Z,22.53
2018-11-11T03:06:51.097Z,21.10
2018-11-11T03:09:19.592Z,19.87
2018-11-11T03:11:48.045Z,21.80
2018-11-11T03:14:16.550Z,23.33
2018-11-11T03:16:45.034Z,22.27
2018-11-11T03:19:13.467Z,21.93
2018-11-11T03:21:42.005Z,24.33
2018-11-11T03:24:10.442Z,22.90
2018-11-11T03:26:39.178Z,22.20
2018-11-11T03:29:07.693Z,22.60
2018-11-11T03:31:36.149Z,24.97
2018-11-11T03:34:05.146Z,25.67
2018-11-11T03:36:33.585Z,24.97
2018-11-11T03:39:02.188Z,23.30
2018-11-11T03:41:30.705Z,23.77
2018-11-11T03:43:59.268Z,28.53
2018-11-11T03:46:27.864Z,27.57
2018-11-11T03:48:56.362Z,26.47
2018-11-11T03:51:24.840Z,26.80
2018-11-11T03:53:53.330Z,24.03
2018-11-11T03:56:21.736Z,25.10
2018-11-11T03:58:50.222Z,24.90
2018-11-11T04:01:18.635Z,25.90
2018-11-11T04:03:47.189Z,23.97
2018-11-11T04:06:15.686Z,24.90
2018-11-11T04:08:44.392Z,26.77
2018-11-11T04:11:12.861Z,24.80
2018-11-11T04:13:41.288Z,22.33
2018-11-11T04:16:09.884Z,24.13
2018-11-11T04:18:38.998Z,25.03
2018-11-11T04:21:07.491Z,22.60
2018-11-11T04:23:35.954Z,22.60
2018-11-11T04:26:04.559Z,22.83
2018-11-11T04:31:09.310Z,22.70
2018-11-11T04:33:37.788Z,23.43
2018-11-11T04:36:06.296Z,22.03
2018-11-11T04:38:34.869Z,20.97
2018-11-11T04:41:03.351Z,21.40
2018-11-11T04:43:31.800Z,22.23
2018-11-11T04:46:00.290Z,24.77
2018-11-11T04:48:28.699Z,23.17
2018-11-11T04:50:57.183Z,22.63
2018-11-11T04:53:25.613Z,22.20
2018-11-11T04:55:54.253Z,22.10
2018-11-11T04:58:22.751Z,19.70
2018-11-11T05:00:51.282Z,20.67
2018-11-11T05:03:19.742Z,19.03
2018-11-11T05:05:48.296Z,19.57
2018-11-11T05:08:16.760Z,21.37
2018-11-11T05:10:45.172Z,21.47
2018-11-11T05:13:13.650Z,21.00
2018-11-11T05:15:42.106Z,20.10
2018-11-11T05:18:10.542Z,18.63
2018-11-11T05:20:38.951Z,20.60
2018-11-11T05:23:07.491Z,19.90
2018-11-11T05:25:35.928Z,20.70
2018-11-11T05:28:04.457Z,21.30
2018-11-11T05:30:32.893Z,18.13
2018-11-11T05:33:01.320Z,20.50
2018-11-11T05:35:29.909Z,18.50
2018-11-11T05:37:58.323Z,20.63
2018-11-11T05:40:26.881Z,19.57
2018-11-11T05:42:55.300Z,19.53
2018-11-11T05:45:23.855Z,18.73
2018-11-11T05:47:52.292Z,20.90
2018-11-11T05:50:20.706Z,18.97
2018-11-11T05:52:49.714Z,18.37
2018-11-11T05:55:18.164Z,20.20
2018-11-11T05:57:46.601Z,19.50
2018-11-11T06:00:16.402Z,18.23
2018-11-11T06:02:45.304Z,18.63
2018-11-11T06:05:14.802Z,20.60
2018-11-11T06:07:43.263Z,19.70
2018-11-11T06:10:12.999Z,18.33
2018-11-11T06:12:41.586Z,16.90
2018-11-11T06:15:11.365Z,18.33
2018-11-11T06:17:39.988Z,17.60
2018-11-11T06:20:11.136Z,19.53
2018-11-11T06:22:40.129Z,19.40
2018-11-11T06:25:08.903Z,19.07
2018-11-11T06:27:37.495Z,16.90
2018-11-11T06:30:06.813Z,18.73
2018-11-11T06:32:35.503Z,18.67
2018-11-11T06:35:04.051Z,17.23
2018-11-11T06:37:32.989Z,18.57
2018-11-11T06:40:01.551Z,17.37
2018-11-11T06:42:30.039Z,15.73
2018-11-11T06:44:58.478Z,17.33
2018-11-11T06:47:26.981Z,17.90
2018-11-11T06:49:55.519Z,17.47
2018-11-11T06:52:24.099Z,18.03
2018-11-11T06:54:52.587Z,16.87
2018-11-11T06:57:21.195Z,16.43
2018-11-11T06:59:49.766Z,18.13
2018-11-11T07:02:18.351Z,18.57
2018-11-11T07:04:46.760Z,17.30
2018-11-11T07:07:15.436Z,17.30
2018-11-11T07:09:43.842Z,17.87
2018-11-11T07:12:12.283Z,17.00
2018-11-11T07:14:40.769Z,15.17
2018-11-11T07:17:09.240Z,15.73
2018-11-11T07:19:37.708Z,15.60
2018-11-11T07:22:06.438Z,13.53
2018-11-11T07:24:34.921Z,13.10
2018-11-11T07:27:03.401Z,13.17
2018-11-11T07:29:31.878Z,13.27
2018-11-11T07:32:00.368Z,12.90
2018-11-11T07:34:28.840Z,11.27
2018-11-11T07:36:57.306Z,12.83
2018-11-11T07:39:25.758Z,11.37
2018-11-11T07:41:54.205Z,11.73
2018-11-11T07:44:22.777Z,9.90
2018-11-11T07:46:51.242Z,11.33
2018-11-11T07:49:19.861Z,12.30
2018-11-11T07:51:48.484Z,11.70
2018-11-11T07:54:17.041Z,9.83
2018-11-11T07:56:45.731Z,10.67
2018-11-11T07:59:14.215Z,10.67
2018-11-11T08:01:42.892Z,10.77
2018-11-11T08:04:11.275Z,11.37
2018-11-11T08:06:39.876Z,11.93
2018-11-11T08:09:08.412Z,11.37
2018-11-11T08:11:48.220Z,13.23
2018-11-11T08:14:16.780Z,13.20
2018-11-11T08:16:45.334Z,13.13
2018-11-11T08:19:14.056Z,12.73
2018-11-11T08:21:42.557Z,12.60
2018-11-11T08:24:11.016Z,14.13
2018-11-11T08:26:39.479Z,12.87
2018-11-11T08:29:08.031Z,12.63
2018-11-11T08:31:36.679Z,14.27
2018-11-11T08:34:05.294Z,11.53
2018-11-11T08:36:33.742Z,13.83
2018-11-11T08:39:02.816Z,14.53
2018-11-11T08:41:31.230Z,14.47
2018-11-11T08:43:59.689Z,15.20
2018-11-11T08:46:28.228Z,15.53
2018-11-11T08:48:56.745Z,13.63
2018-11-11T08:51:25.189Z,12.77
2018-11-11T08:53:53.707Z,12.97
2018-11-11T08:56:22.263Z,13.17
2018-11-11T08:58:50.753Z,13.03
2018-11-11T09:01:19.244Z,15.37
2018-11-11T09:03:47.665Z,13.63
2018-11-11T09:06:16.168Z,13.40
2018-11-11T09:08:44.628Z,14.17
2018-11-11T09:11:13.127Z,14.27
2018-11-11T09:13:41.664Z,13.90
2018-11-11T09:16:10.233Z,13.47
2018-11-11T09:18:38.682Z,12.23
2018-11-11T09:21:08.138Z,13.17
2018-11-11T09:23:36.877Z,12.23
2018-11-11T09:26:05.945Z,12.47
2018-11-11T09:28:34.413Z,12.53
2018-11-11T09:31:03.312Z,13.03
2018-11-11T09:33:31.746Z,13.87
2018-11-11T09:36:00.276Z,11.73
2018-11-11T09:38:29.055Z,11.60
2018-11-11T09:40:57.549Z,10.90
2018-11-11T09:43:26.018Z,11.33
2018-11-11T09:45:54.490Z,13.07
2018-11-11T09:48:23.108Z,22.33
2018-11-11T09:50:51.567Z,17.77
2018-11-11T09:53:20.282Z,14.20
2018-11-11T09:55:48.755Z,12.33
2018-11-11T09:58:17.253Z,12.63
2018-11-11T10:00:45.744Z,13.53
2018-11-11T10:03:22.614Z,15.77
2018-11-11T10:05:55.058Z,20.37
2018-11-11T10:09:01.165Z,16.67
2018-11-11T10:11:35.892Z,20.17
2018-11-11T10:15:07.452Z,15.43
2018-11-11T10:17:42.520Z,16.23
2018-11-11T10:20:47.585Z,14.57
2018-11-11T10:23:29.578Z,15.07
2018-11-11T10:26:03.353Z,16.13
2018-11-11T10:29:40.291Z,14.97
2018-11-11T10:32:25.150Z,15.50
2018-11-11T10:35:00.764Z,12.63
2018-11-11T10:37:39.142Z,14.30
2018-11-11T10:40:16.216Z,12.47
2018-11-11T10:43:20.022Z,10.27
2018-11-11T10:45:56.742Z,9.57
2018-11-11T10:48:28.291Z,11.13
2018-11-11T10:51:01.475Z,9.77
2018-11-11T10:53:29.945Z,13.20
2018-11-11T10:55:58.524Z,9.50
2018-11-11T10:58:27.765Z,8.10
2018-11-11T11:01:01.535Z,7.20
2018-11-11T11:03:32.383Z,7.23
2018-11-11T11:06:01.625Z,6.23
2018-11-11T11:08:30.302Z,7.33
2018-11-11T11:10:58.998Z,7.40
2018-11-11T11:13:28.268Z,8.27
2018-11-11T11:15:57.030Z,17.80
2018-11-11T11:18:25.866Z,28.70
2018-11-11T11:20:54.364Z,39.83
2018-11-11T11:23:23.457Z,9.43
2018-11-11T11:25:51.951Z,16.97
2018-11-11T11:28:21.213Z,37.37
2018-11-11T11:30:49.833Z,11.13
2018-11-11T11:33:18.389Z,5.70
2018-11-11T11:35:46.952Z,11.37
2018-11-11T11:38:15.395Z,7.00
2018-11-11T11:40:43.901Z,5.03
2018-11-11T11:43:12.460Z,4.53
2018-11-11T11:45:40.915Z,5.10
2018-11-11T11:48:09.446Z,4.53
2018-11-11T11:50:38.298Z,2.93
2018-11-11T11:53:06.812Z,5.27
2018-11-11T11:55:35.306Z,15.33
2018-11-11T11:58:28.703Z,16.93
2018-11-11T12:00:57.434Z,15.68
2018-11-11T12:03:25.900Z,6.07
2018-11-11T12:05:54.514Z,20.13
2018-11-11T12:08:23.306Z,8.10
2018-11-11T12:10:51.829Z,13.83
2018-11-11T12:13:20.681Z,10.83
2018-11-11T12:15:49.241Z,5.27
2018-11-11T12:18:17.689Z,5.97
2018-11-11T12:20:46.228Z,8.27
2018-11-11T12:23:14.724Z,10.63
2018-11-11T12:25:43.316Z,5.50
2018-11-11T12:28:11.928Z,2.70
2018-11-11T12:30:40.523Z,8.27
2018-11-11T12:33:09.035Z,6.90
2018-11-11T12:35:37.476Z,6.03
2018-11-11T12:38:05.914Z,2.70
2018-11-11T12:40:34.742Z,5.63
2018-11-11T12:43:03.596Z,3.57
2018-11-11T12:45:32.214Z,5.00
2018-11-11T12:48:00.971Z,4.13
2018-11-11T12:50:29.619Z,4.30
2018-11-11T12:52:58.095Z,3.37
2018-11-11T12:55:27.462Z,7.00
2018-11-11T12:57:56.696Z,3.43
2018-11-11T13:00:25.189Z,8.50
2018-11-11T13:02:53.855Z,3.27
2018-11-11T13:05:22.456Z,3.90
2018-11-11T13:07:50.994Z,6.80
2018-11-11T13:10:19.546Z,4.07
2018-11-11T13:12:48.069Z,5.13
2018-11-11T13:15:16.567Z,5.83
2018-11-11T13:17:45.012Z,3.13
2018-11-11T13:20:15.203Z,15.00
2018-11-11T13:22:43.754Z,6.80
2018-11-11T13:25:12.851Z,5.17
2018-11-11T13:27:41.374Z,3.97
2018-11-11T13:30:11.485Z,4.40
2018-11-11T13:32:39.983Z,3.40
2018-11-11T13:35:10.419Z,9.97
2018-11-11T13:37:38.997Z,4.77
2018-11-11T13:40:10.250Z,6.63
2018-11-11T13:42:38.810Z,5.50
2018-11-11T13:45:10.028Z,4.90
2018-11-11T13:47:38.534Z,6.73
2018-11-11T13:50:09.629Z,6.00
2018-11-11T13:52:38.082Z,4.63
2018-11-11T13:55:07.987Z,5.40
2018-11-11T13:57:36.480Z,4.40
2018-11-11T14:00:07.655Z,4.90
2018-11-11T14:02:36.136Z,4.13
2018-11-11T14:05:04.857Z,6.17
2018-11-11T14:07:33.608Z,2.90
2018-11-11T14:10:02.396Z,7.37
2018-11-11T14:12:30.989Z,3.33
2018-11-11T14:14:59.473Z,19.03
2018-11-11T14:17:27.961Z,15.13
2018-11-11T14:19:56.482Z,27.00
2018-11-11T14:22:24.925Z,4.17
2018-11-11T14:24:53.770Z,3.10
2018-11-11T14:27:22.308Z,2.30
2018-11-11T14:29:50.900Z,4.30
2018-11-11T14:32:19.448Z,3.67
2018-11-11T14:34:48.071Z,5.50
2018-11-11T14:37:16.664Z,11.93
2018-11-11T14:39:45.113Z,5.73
2018-11-11T14:42:13.551Z,17.87
2018-11-11T14:44:42.313Z,19.53
2018-11-11T14:47:10.804Z,22.43
2018-11-11T14:49:39.282Z,3.13
2018-11-11T14:52:07.904Z,3.50
2018-11-11T14:54:36.258Z,41.07
2018-11-11T14:57:04.843Z,15.53
2018-11-11T14:59:33.427Z,11.30
2018-11-11T15:02:01.982Z,4.20
2018-11-11T15:04:30.414Z,5.00
2018-11-11T15:06:59.088Z,4.33
2018-11-11T15:09:27.582Z,4.03
2018-11-11T15:11:56.167Z,4.00
2018-11-11T15:14:24.592Z,3.87
2018-11-11T15:16:53.092Z,3.87
2018-11-11T15:19:21.662Z,3.73
2018-11-11T15:21:50.212Z,3.87
2018-11-11T15:24:18.694Z,4.80
2018-11-11T15:26:47.122Z,3.63
2018-11-11T15:29:15.584Z,4.43
2018-11-11T15:31:44.128Z,4.57
2018-11-11T15:34:12.577Z,4.10
2018-11-11T15:36:41.118Z,3.87
2018-11-11T15:39:10.842Z,3.60
2018-11-11T15:41:39.932Z,3.73
2018-11-11T15:44:08.334Z,3.80
2018-11-11T15:46:37.002Z,11.03
2018-11-11T15:49:05.591Z,3.17
2018-11-11T15:51:34.169Z,3.77
2018-11-11T15:54:02.962Z,3.50
2018-11-11T15:56:31.406Z,3.87
2018-11-11T15:58:59.946Z,3.23
2018-11-11T16:01:28.624Z,4.40
2018-11-11T16:03:57.076Z,4.17
2018-11-11T16:06:25.676Z,5.50
2018-11-11T16:08:54.071Z,7.33
2018-11-11T16:11:22.695Z,6.23
2018-11-11T16:13:51.202Z,5.33
2018-11-11T16:16:19.736Z,4.10
2018-11-11T16:18:48.286Z,4.10
2018-11-11T16:21:16.918Z,4.03
2018-11-11T16:23:45.461Z,3.50
2018-11-11T16:26:14.077Z,3.87
2018-11-11T16:28:42.578Z,4.30
2018-11-11T16:31:11.024Z,4.40
2018-11-11T16:33:39.500Z,4.70
2018-11-11T16:36:07.994Z,4.50
2018-11-11T16:38:36.437Z,3.53
2018-11-11T16:41:05.102Z,3.80
2018-11-11T16:43:33.423Z,4.83
2018-11-11T16:46:01.872Z,4.57
2018-11-11T16:48:30.366Z,4.40
2018-11-11T16:50:58.842Z,5.03
2018-11-11T16:53:27.317Z,4.33
2018-11-11T16:55:56.116Z,5.53
2018-11-11T16:58:24.702Z,5.97
2018-11-11T17:00:53.196Z,5.13
2018-11-11T17:03:22.062Z,5.07
2018-11-11T17:05:50.771Z,4.63
2018-11-11T17:08:19.457Z,4.57
2018-11-11T17:10:47.949Z,3.60
2018-11-11T17:13:16.642Z,5.50
2018-11-11T17:15:45.424Z,5.10
2018-11-11T17:18:13.998Z,4.87
2018-11-11T17:20:42.575Z,4.17
2018-11-11T17:23:11.187Z,4.43
2018-11-11T17:25:39.680Z,3.80
2018-11-11T17:28:08.256Z,3.40
2018-11-11T17:30:36.755Z,4.60
2018-11-11T17:33:05.916Z,4.57
2018-11-11T17:35:34.435Z,3.87
2018-11-11T17:38:03.016Z,4.13
2018-11-11T17:40:31.908Z,3.63
2018-11-11T17:43:01.182Z,4.50
2018-11-11T17:45:29.799Z,3.93
2018-11-11T17:47:58.493Z,3.83
2018-11-11T17:50:29.356Z,3.70
2018-11-11T17:52:58.535Z,3.23
2018-11-11T17:55:27.849Z,3.30
2018-11-11T17:57:56.432Z,3.30
2018-11-11T18:00:26.109Z,2.70
2018-11-11T18:02:55.138Z,3.60
2018-11-11T18:05:24.843Z,4.00
2018-11-11T18:07:53.432Z,4.70
2018-11-11T18:10:23.124Z,3.53
2018-11-11T18:12:51.584Z,3.63
2018-11-11T18:15:22.883Z,3.60
2018-11-11T18:17:51.384Z,3.80
2018-11-11T18:20:24.468Z,4.07
2018-11-11T18:22:53.817Z,3.50
2018-11-11T18:25:22.362Z,3.87
2018-11-11T18:27:51.346Z,3.50
2018-11-11T18:30:23.402Z,3.53
2018-11-11T18:32:51.995Z,4.60
2018-11-11T18:35:20.897Z,4.10
2018-11-11T18:37:49.469Z,4.10
2018-11-11T18:40:19.414Z,3.23
2018-11-11T18:42:48.194Z,3.50
2018-11-11T18:45:19.434Z,4.30
2018-11-11T18:47:48.939Z,4.17
2018-11-11T18:50:20.613Z,3.40
2018-11-11T18:52:49.350Z,3.63
2018-11-11T18:55:17.871Z,3.73
2018-11-11T18:57:46.497Z,3.90
2018-11-11T19:00:18.452Z,4.40
2018-11-11T19:02:48.120Z,4.20
2018-11-11T19:05:17.480Z,3.97
2018-11-11T19:07:46.354Z,9.87
2018-11-11T19:10:20.607Z,5.10
2018-11-11T19:12:50.304Z,4.20
2018-11-11T19:15:19.567Z,3.50
2018-11-11T19:17:48.771Z,2.80
2018-11-11T19:20:19.515Z,4.00
2018-11-11T19:22:48.093Z,6.60
2018-11-11T19:25:18.193Z,14.77
2018-11-11T19:27:48.243Z,3.97
2018-11-11T19:30:17.810Z,4.37
2018-11-11T19:32:46.941Z,3.30
2018-11-11T19:35:16.202Z,4.20
2018-11-11T19:37:46.101Z,6.20
2018-11-11T19:40:17.932Z,3.40
2018-11-11T19:42:46.821Z,3.47
2018-11-11T19:45:16.947Z,3.80
2018-11-11T19:47:45.633Z,3.67
2018-11-11T19:50:16.485Z,3.93
2018-11-11T19:52:46.701Z,3.10
2018-11-11T19:55:15.895Z,3.30
2018-11-11T19:57:44.448Z,3.97
2018-11-11T20:00:17.119Z,3.90
2018-11-11T20:02:46.886Z,3.57
2018-11-11T20:05:16.510Z,3.87
2018-11-11T20:07:46.282Z,2.93
2018-11-11T20:10:16.033Z,3.37
2018-11-11T20:12:44.873Z,3.33
2018-11-11T20:15:14.654Z,4.00
2018-11-11T20:17:43.761Z,3.23
2018-11-11T20:20:15.118Z,3.40
2018-11-11T20:22:43.684Z,3.20
2018-11-11T20:25:13.391Z,3.43
2018-11-11T20:27:42.424Z,3.50
2018-11-11T20:30:15.037Z,3.23
2018-11-11T20:32:44.131Z,3.67
2018-11-11T20:35:14.135Z,3.67
2018-11-11T20:37:43.477Z,3.27
2018-11-11T20:40:14.208Z,3.30
2018-11-11T20:42:43.276Z,3.10
2018-11-11T20:45:14.078Z,3.30
2018-11-11T20:47:43.388Z,3.33
2018-11-11T20:50:16.053Z,3.43
2018-11-11T20:52:45.339Z,4.20
2018-11-11T20:55:14.356Z,4.10
2018-11-11T20:57:43.226Z,3.50
2018-11-11T21:00:14.864Z,3.53
2018-11-11T21:02:44.000Z,3.80
2018-11-11T21:05:13.873Z,3.73
2018-11-11T21:07:42.722Z,3.47
2018-11-11T21:10:13.512Z,3.67
2018-11-11T21:12:42.433Z,3.47
2018-11-11T21:15:15.301Z,3.70
2018-11-11T21:17:44.207Z,3.60
2018-11-11T21:20:13.830Z,3.90
2018-11-11T21:22:42.791Z,3.37
2018-11-11T21:25:11.443Z,3.30
2018-11-11T21:27:40.790Z,3.00
2018-11-11T21:30:12.263Z,3.17
2018-11-11T21:32:41.053Z,3.07
2018-11-11T21:35:10.550Z,3.53
2018-11-11T21:37:39.689Z,3.60
2018-11-11T21:40:09.862Z,3.50
2018-11-11T21:42:40.205Z,3.37
2018-11-11T21:45:10.414Z,3.57
2018-11-11T21:47:39.017Z,3.80
2018-11-11T21:50:11.751Z,3.33
2018-11-11T21:52:44.388Z,3.07
2018-11-11T21:55:13.042Z,3.53
2018-11-11T21:57:41.656Z,2.97
2018-11-11T22:00:12.735Z,3.90
2018-11-11T22:02:41.368Z,4.27
2018-11-11T22:05:11.242Z,3.83
2018-11-11T22:07:39.980Z,3.43
2018-11-11T22:10:11.032Z,3.80
2018-11-11T22:12:39.553Z,4.33
2018-11-11T22:15:08.928Z,4.40
2018-11-11T22:17:37.535Z,4.00
2018-11-11T22:20:06.901Z,4.43
2018-11-11T22:22:35.514Z,4.10
2018-11-11T22:25:04.630Z,4.30
2018-11-11T22:27:33.401Z,4.50
2018-11-11T22:30:01.885Z,4.33
2018-11-11T22:32:30.366Z,4.37
2018-11-11T22:34:58.855Z,4.00
2018-11-11T22:37:27.270Z,3.93
2018-11-11T22:39:55.822Z,3.07
2018-11-11T22:42:24.466Z,4.20
2018-11-11T22:44:52.902Z,3.97
2018-11-11T22:47:21.384Z,4.30
2018-11-11T22:49:49.840Z,4.50
2018-11-11T22:52:18.357Z,3.93
2018-11-11T22:54:46.920Z,4.03
2018-11-11T22:57:15.421Z,4.67
2018-11-11T22:59:43.896Z,4.63
2018-11-11T23:02:12.483Z,4.50
2018-11-11T23:04:41.089Z,4.27
2018-11-11T23:07:09.547Z,4.87
2018-11-11T23:09:38.262Z,4.70
2018-11-11T23:12:06.822Z,4.40
2018-11-11T23:14:35.262Z,4.30
2018-11-11T23:17:04.028Z,4.97
2018-11-11T23:19:32.612Z,4.50
2018-11-11T23:22:01.532Z,4.60
2018-11-11T23:24:29.963Z,4.73
2018-11-11T23:26:58.475Z,4.43
2018-11-11T23:29:27.016Z,4.60
2018-11-11T23:31:55.452Z,4.87
2018-11-11T23:34:23.951Z,4.60
2018-11-11T23:36:52.416Z,4.57
2018-11-11T23:39:20.860Z,3.80
2018-11-11T23:41:49.383Z,4.43
2018-11-11T23:44:18.486Z,3.63
2018-11-11T23:46:46.925Z,4.03
2018-11-11T23:49:15.351Z,3.37
2018-11-11T23:51:43.835Z,3.77
2018-11-11T23:54:12.830Z,4.15
2018-11-11T23:56:41.268Z,3.10
2018-11-11T23:59:09.680Z,4.13
